sensor_id;sensor_type;location;lat;lon;timestamp;pressure;altitude;pressure_sealevel;temperature;humidity
22688;BME280;11511;51.514;7.080;2022-11-10T00:00:36;101163.31;;;8.65;100.00
22688;BME280;11511;51.514;7.080;2022-11-10T00:03:21;101172.22;;;8.57;100.00
22688;BME280;11511;51.514;7.080;2022-11-10T00:06:07;101178.66;;;8.42;100.00
22688;BME280;11511;51.514;7.080;2022-11-10T00:08:52;101187.59;;;8.29;100.00
22688;BME280;11511;51.514;7.080;2022-11-10T00:11:36;101182.16;;;8.41;100.00
22688;BME280;11511;51.514;7.080;2022-11-10T00:14:21;101184.34;;;8.16;100.00
22688;BME280;11511;51.514;7.080;2022-11-10T00:17:24;101198.09;;;8.29;100.00
22688;BME280;11511;51.514;7.080;2022-11-10T00:20:09;101199.72;;;8.37;100.00
22688;BME280;11511;51.514;7.080;2022-11-10T00:22:54;101197.56;;;8.59;100.00
22688;BME280;11511;51.514;7.080;2022-11-10T00:25:38;101187.19;;;8.52;100.00
22688;BME280;11511;51.514;7.080;2022-11-10T00:28:22;101193.56;;;8.40;100.00
22688;BME280;11511;51.514;7.080;2022-11-10T00:31:07;101193.63;;;8.37;100.00
22688;BME280;11511;51.514;7.080;2022-11-10T00:33:51;101200.53;;;8.42;100.00
22688;BME280;11511;51.514;7.080;2022-11-10T00:36:35;101196.19;;;8.40;100.00
22688;BME280;11511;51.514;7.080;2022-11-10T00:39:19;101199.59;;;8.45;100.00
22688;BME280;11511;51.514;7.080;2022-11-10T00:42:04;101206.81;;;8.31;100.00
22688;BME280;11511;51.514;7.080;2022-11-10T00:44:49;101208.53;;;8.33;100.00
22688;BME280;11511;51.514;7.080;2022-11-10T00:47:33;101211.25;;;8.27;100.00
22688;BME280;11511;51.514;7.080;2022-11-10T00:50:16;101211.97;;;8.38;100.00
22688;BME280;11511;51.514;7.080;2022-11-10T00:53:01;101222.81;;;8.17;100.00
22688;BME280;11511;51.514;7.080;2022-11-10T00:55:46;101208.69;;;8.23;100.00
22688;BME280;11511;51.514;7.080;2022-11-10T00:58:30;101211.88;;;8.43;100.00
22688;BME280;11511;51.514;7.080;2022-11-10T01:01:16;101209.22;;;8.46;100.00
22688;BME280;11511;51.514;7.080;2022-11-10T01:04:01;101209.78;;;8.60;100.00
22688;BME280;11511;51.514;7.080;2022-11-10T01:06:45;101202.44;;;8.30;100.00
22688;BME280;11511;51.514;7.080;2022-11-10T01:09:30;101222.56;;;8.29;100.00
22688;BME280;11511;51.514;7.080;2022-11-10T01:12:15;101223.34;;;8.37;100.00
22688;BME280;11511;51.514;7.080;2022-11-10T01:14:59;101231.84;;;8.52;100.00
22688;BME280;11511;51.514;7.080;2022-11-10T01:17:45;101233.97;;;8.28;100.00
22688;BME280;11511;51.514;7.080;2022-11-10T01:20:32;101242.66;;;8.35;100.00
22688;BME280;11511;51.514;7.080;2022-11-10T01:23:17;101243.41;;;8.41;100.00
22688;BME280;11511;51.514;7.080;2022-11-10T01:26:04;101242.19;;;8.08;100.00
22688;BME280;11511;51.514;7.080;2022-11-10T01:28:48;101257.56;;;8.30;100.00
22688;BME280;11511;51.514;7.080;2022-11-10T01:31:33;101258.88;;;8.03;100.00
22688;BME280;11511;51.514;7.080;2022-11-10T01:34:17;101255.19;;;8.16;100.00
22688;BME280;11511;51.514;7.080;2022-11-10T01:37:01;101258.47;;;8.27;100.00
22688;BME280;11511;51.514;7.080;2022-11-10T01:39:46;101268.00;;;8.36;100.00
22688;BME280;11511;51.514;7.080;2022-11-10T01:42:48;101278.50;;;8.36;100.00
22688;BME280;11511;51.514;7.080;2022-11-10T01:45:38;101268.03;;;8.34;100.00
22688;BME280;11511;51.514;7.080;2022-11-10T01:51:34;101270.72;;;8.27;100.00
22688;BME280;11511;51.514;7.080;2022-11-10T01:54:26;101272.63;;;8.20;100.00
22688;BME280;11511;51.514;7.080;2022-11-10T01:57:14;101271.56;;;8.29;100.00
22688;BME280;11511;51.514;7.080;2022-11-10T02:00:00;101275.06;;;8.32;100.00
22688;BME280;11511;51.514;7.080;2022-11-10T02:05:48;101277.59;;;8.38;100.00
22688;BME280;11511;51.514;7.080;2022-11-10T02:08:37;101280.75;;;8.02;100.00
22688;BME280;11511;51.514;7.080;2022-11-10T02:11:22;101283.84;;;8.28;100.00
22688;BME280;11511;51.514;7.080;2022-11-10T02:14:07;101294.44;;;8.21;100.00
22688;BME280;11511;51.514;7.080;2022-11-10T02:16:51;101292.69;;;8.21;100.00
22688;BME280;11511;51.514;7.080;2022-11-10T02:19:42;101283.69;;;8.39;100.00
22688;BME280;11511;51.514;7.080;2022-11-10T02:22:29;101302.59;;;8.04;100.00
22688;BME280;11511;51.514;7.080;2022-11-10T02:25:16;101306.91;;;8.08;100.00
22688;BME280;11511;51.514;7.080;2022-11-10T02:28:02;101306.16;;;8.00;100.00
22688;BME280;11511;51.514;7.080;2022-11-10T02:30:47;101313.63;;;8.24;100.00
22688;BME280;11511;51.514;7.080;2022-11-10T02:33:31;101307.53;;;8.22;100.00
22688;BME280;11511;51.514;7.080;2022-11-10T02:36:16;101300.44;;;8.29;100.00
22688;BME280;11511;51.514;7.080;2022-11-10T02:39:00;101302.88;;;8.44;100.00
22688;BME280;11511;51.514;7.080;2022-11-10T02:41:45;101305.53;;;8.41;100.00
22688;BME280;11511;51.514;7.080;2022-11-10T02:44:29;101311.84;;;8.28;100.00
22688;BME280;11511;51.514;7.080;2022-11-10T02:47:13;101315.41;;;8.22;100.00
22688;BME280;11511;51.514;7.080;2022-11-10T02:49:57;101324.81;;;8.40;100.00
22688;BME280;11511;51.514;7.080;2022-11-10T02:52:42;101317.06;;;8.32;100.00
22688;BME280;11511;51.514;7.080;2022-11-10T02:55:26;101323.22;;;8.27;100.00
22688;BME280;11511;51.514;7.080;2022-11-10T02:58:11;101313.88;;;8.09;100.00
22688;BME280;11511;51.514;7.080;2022-11-10T03:00:55;101325.81;;;8.30;100.00
22688;BME280;11511;51.514;7.080;2022-11-10T03:03:40;101322.22;;;8.37;100.00
22688;BME280;11511;51.514;7.080;2022-11-10T03:06:24;101331.84;;;8.38;100.00
22688;BME280;11511;51.514;7.080;2022-11-10T03:09:08;101338.88;;;8.36;100.00
22688;BME280;11511;51.514;7.080;2022-11-10T03:11:52;101341.75;;;8.19;100.00
22688;BME280;11511;51.514;7.080;2022-11-10T03:14:37;101330.09;;;8.37;100.00
22688;BME280;11511;51.514;7.080;2022-11-10T03:17:21;101338.91;;;8.31;100.00
22688;BME280;11511;51.514;7.080;2022-11-10T03:20:06;101328.47;;;8.27;100.00
22688;BME280;11511;51.514;7.080;2022-11-10T03:22:51;101333.41;;;8.48;100.00
22688;BME280;11511;51.514;7.080;2022-11-10T03:25:35;101336.22;;;8.37;100.00
22688;BME280;11511;51.514;7.080;2022-11-10T03:28:21;101340.44;;;8.47;100.00
22688;BME280;11511;51.514;7.080;2022-11-10T03:31:06;101342.91;;;8.55;100.00
22688;BME280;11511;51.514;7.080;2022-11-10T03:33:50;101335.97;;;8.53;100.00
22688;BME280;11511;51.514;7.080;2022-11-10T03:36:35;101344.69;;;8.55;100.00
22688;BME280;11511;51.514;7.080;2022-11-10T03:39:19;101351.09;;;8.38;100.00
22688;BME280;11511;51.514;7.080;2022-11-10T03:42:04;101370.06;;;8.54;100.00
22688;BME280;11511;51.514;7.080;2022-11-10T03:44:48;101367.31;;;8.63;100.00
22688;BME280;11511;51.514;7.080;2022-11-10T03:47:32;101367.47;;;8.53;100.00
22688;BME280;11511;51.514;7.080;2022-11-10T03:50:17;101376.81;;;8.70;100.00
22688;BME280;11511;51.514;7.080;2022-11-10T03:53:01;101364.31;;;8.85;100.00
22688;BME280;11511;51.514;7.080;2022-11-10T03:55:45;101370.75;;;8.67;100.00
22688;BME280;11511;51.514;7.080;2022-11-10T03:58:29;101385.63;;;8.66;100.00
22688;BME280;11511;51.514;7.080;2022-11-10T04:01:14;101391.03;;;8.57;100.00
22688;BME280;11511;51.514;7.080;2022-11-10T04:03:59;101388.72;;;8.37;100.00
22688;BME280;11511;51.514;7.080;2022-11-10T04:06:44;101395.75;;;8.35;100.00
22688;BME280;11511;51.514;7.080;2022-11-10T04:09:47;101395.56;;;8.47;100.00
22688;BME280;11511;51.514;7.080;2022-11-10T04:12:31;101401.09;;;8.25;100.00
22688;BME280;11511;51.514;7.080;2022-11-10T04:15:35;101414.22;;;8.26;100.00
22688;BME280;11511;51.514;7.080;2022-11-10T04:18:26;101419.41;;;8.34;100.00
22688;BME280;11511;51.514;7.080;2022-11-10T04:21:12;101423.97;;;8.18;100.00
22688;BME280;11511;51.514;7.080;2022-11-10T04:23:57;101431.88;;;8.17;100.00
22688;BME280;11511;51.514;7.080;2022-11-10T04:26:42;101436.97;;;8.24;100.00
22688;BME280;11511;51.514;7.080;2022-11-10T04:29:27;101437.00;;;8.23;100.00
22688;BME280;11511;51.514;7.080;2022-11-10T04:32:12;101438.66;;;8.33;100.00
22688;BME280;11511;51.514;7.080;2022-11-10T04:34:56;101439.88;;;8.04;100.00
22688;BME280;11511;51.514;7.080;2022-11-10T04:37:41;101442.31;;;8.20;100.00
22688;BME280;11511;51.514;7.080;2022-11-10T04:40:25;101442.44;;;8.10;100.00
22688;BME280;11511;51.514;7.080;2022-11-10T04:43:10;101447.66;;;8.12;100.00
22688;BME280;11511;51.514;7.080;2022-11-10T04:45:55;101461.81;;;7.99;100.00
22688;BME280;11511;51.514;7.080;2022-11-10T04:48:40;101462.72;;;7.96;100.00
22688;BME280;11511;51.514;7.080;2022-11-10T04:51:28;101467.00;;;8.03;100.00
22688;BME280;11511;51.514;7.080;2022-11-10T04:54:13;101467.03;;;8.02;100.00
22688;BME280;11511;51.514;7.080;2022-11-10T04:56:57;101488.88;;;8.02;100.00
22688;BME280;11511;51.514;7.080;2022-11-10T04:59:41;101485.22;;;8.17;100.00
22688;BME280;11511;51.514;7.080;2022-11-10T05:02:27;101484.69;;;7.89;100.00
22688;BME280;11511;51.514;7.080;2022-11-10T05:05:11;101486.09;;;8.18;100.00
22688;BME280;11511;51.514;7.080;2022-11-10T05:07:56;101489.66;;;8.10;100.00
22688;BME280;11511;51.514;7.080;2022-11-10T05:10:41;101495.84;;;8.06;100.00
22688;BME280;11511;51.514;7.080;2022-11-10T05:13:26;101487.13;;;8.03;100.00
22688;BME280;11511;51.514;7.080;2022-11-10T05:16:12;101501.94;;;8.07;100.00
22688;BME280;11511;51.514;7.080;2022-11-10T05:18:56;101507.16;;;8.11;100.00
22688;BME280;11511;51.514;7.080;2022-11-10T05:21:41;101508.25;;;7.92;100.00
22688;BME280;11511;51.514;7.080;2022-11-10T05:24:26;101517.09;;;7.82;100.00
22688;BME280;11511;51.514;7.080;2022-11-10T05:27:10;101529.28;;;7.89;100.00
22688;BME280;11511;51.514;7.080;2022-11-10T05:29:55;101534.53;;;7.89;100.00
22688;BME280;11511;51.514;7.080;2022-11-10T05:32:40;101528.47;;;7.81;100.00
22688;BME280;11511;51.514;7.080;2022-11-10T05:35:24;101526.38;;;8.13;100.00
22688;BME280;11511;51.514;7.080;2022-11-10T05:38:09;101538.78;;;7.96;100.00
22688;BME280;11511;51.514;7.080;2022-11-10T05:40:53;101534.50;;;7.92;100.00
22688;BME280;11511;51.514;7.080;2022-11-10T05:43:38;101543.19;;;7.94;100.00
22688;BME280;11511;51.514;7.080;2022-11-10T05:46:22;101545.69;;;8.05;100.00
22688;BME280;11511;51.514;7.080;2022-11-10T05:49:06;101550.16;;;7.95;100.00
22688;BME280;11511;51.514;7.080;2022-11-10T05:51:51;101561.59;;;7.91;100.00
22688;BME280;11511;51.514;7.080;2022-11-10T05:54:35;101554.53;;;7.96;100.00
22688;BME280;11511;51.514;7.080;2022-11-10T05:57:20;101556.28;;;7.96;100.00
22688;BME280;11511;51.514;7.080;2022-11-10T06:00:05;101563.44;;;7.83;100.00
22688;BME280;11511;51.514;7.080;2022-11-10T06:02:56;101556.50;;;7.76;100.00
22688;BME280;11511;51.514;7.080;2022-11-10T06:05:41;101566.16;;;7.71;100.00
22688;BME280;11511;51.514;7.080;2022-11-10T06:08:25;101562.63;;;7.76;100.00
22688;BME280;11511;51.514;7.080;2022-11-10T06:11:12;101565.16;;;7.86;100.00
22688;BME280;11511;51.514;7.080;2022-11-10T06:13:56;101568.69;;;7.81;100.00
22688;BME280;11511;51.514;7.080;2022-11-10T06:16:41;101564.25;;;7.88;100.00
22688;BME280;11511;51.514;7.080;2022-11-10T06:19:25;101571.31;;;7.81;100.00
22688;BME280;11511;51.514;7.080;2022-11-10T06:22:10;101569.47;;;7.91;100.00
22688;BME280;11511;51.514;7.080;2022-11-10T06:24:54;101574.88;;;7.73;100.00
22688;BME280;11511;51.514;7.080;2022-11-10T06:27:42;101581.81;;;7.78;100.00
22688;BME280;11511;51.514;7.080;2022-11-10T06:30:28;101594.00;;;7.87;100.00
22688;BME280;11511;51.514;7.080;2022-11-10T06:33:14;101597.56;;;7.80;100.00
22688;BME280;11511;51.514;7.080;2022-11-10T06:35:58;101610.63;;;7.83;100.00
22688;BME280;11511;51.514;7.080;2022-11-10T06:38:42;101605.38;;;7.86;100.00
22688;BME280;11511;51.514;7.080;2022-11-10T06:41:27;101610.66;;;7.81;100.00
22688;BME280;11511;51.514;7.080;2022-11-10T06:44:11;101621.09;;;7.89;100.00
22688;BME280;11511;51.514;7.080;2022-11-10T06:46:56;101621.06;;;7.92;100.00
22688;BME280;11511;51.514;7.080;2022-11-10T06:49:40;101636.91;;;7.78;100.00
22688;BME280;11511;51.514;7.080;2022-11-10T06:52:24;101639.47;;;7.88;100.00
22688;BME280;11511;51.514;7.080;2022-11-10T06:55:09;101639.53;;;7.77;100.00
22688;BME280;11511;51.514;7.080;2022-11-10T06:57:53;101638.56;;;7.92;100.00
22688;BME280;11511;51.514;7.080;2022-11-10T07:00:38;101648.97;;;7.95;100.00
22688;BME280;11511;51.514;7.080;2022-11-10T07:03:23;101650.69;;;8.02;100.00
22688;BME280;11511;51.514;7.080;2022-11-10T07:06:07;101642.75;;;8.06;100.00
22688;BME280;11511;51.514;7.080;2022-11-10T07:08:52;101656.72;;;8.10;100.00
22688;BME280;11511;51.514;7.080;2022-11-10T07:11:36;101669.81;;;8.13;100.00
22688;BME280;11511;51.514;7.080;2022-11-10T07:14:21;101678.34;;;8.38;100.00
22688;BME280;11511;51.514;7.080;2022-11-10T07:17:05;101676.69;;;8.26;100.00
22688;BME280;11511;51.514;7.080;2022-11-10T07:19:49;101666.88;;;8.46;100.00
22688;BME280;11511;51.514;7.080;2022-11-10T07:22:34;101677.47;;;8.39;100.00
22688;BME280;11511;51.514;7.080;2022-11-10T07:25:18;101681.84;;;8.40;100.00
22688;BME280;11511;51.514;7.080;2022-11-10T07:28:05;101690.66;;;8.27;100.00
22688;BME280;11511;51.514;7.080;2022-11-10T07:30:50;101691.38;;;8.47;100.00
22688;BME280;11511;51.514;7.080;2022-11-10T07:33:33;101692.94;;;8.65;100.00
22688;BME280;11511;51.514;7.080;2022-11-10T07:36:18;101687.78;;;8.54;100.00
22688;BME280;11511;51.514;7.080;2022-11-10T07:39:02;101690.44;;;8.53;100.00
22688;BME280;11511;51.514;7.080;2022-11-10T07:41:46;101692.03;;;8.67;100.00
22688;BME280;11511;51.514;7.080;2022-11-10T07:44:30;101699.84;;;8.73;100.00
22688;BME280;11511;51.514;7.080;2022-11-10T07:47:15;101703.97;;;8.94;100.00
22688;BME280;11511;51.514;7.080;2022-11-10T07:49:59;101705.66;;;8.98;100.00
22688;BME280;11511;51.514;7.080;2022-11-10T07:52:44;101704.75;;;9.02;100.00
22688;BME280;11511;51.514;7.080;2022-11-10T07:55:28;101711.59;;;9.14;100.00
22688;BME280;11511;51.514;7.080;2022-11-10T07:58:14;101720.22;;;9.24;100.00
22688;BME280;11511;51.514;7.080;2022-11-10T08:00:59;101720.22;;;9.25;100.00
22688;BME280;11511;51.514;7.080;2022-11-10T08:03:43;101715.72;;;9.32;100.00
22688;BME280;11511;51.514;7.080;2022-11-10T08:06:27;101726.09;;;9.42;100.00
22688;BME280;11511;51.514;7.080;2022-11-10T08:09:11;101728.56;;;9.55;100.00
22688;BME280;11511;51.514;7.080;2022-11-10T08:11:55;101732.88;;;9.59;100.00
22688;BME280;11511;51.514;7.080;2022-11-10T08:14:39;101732.69;;;9.72;100.00
22688;BME280;11511;51.514;7.080;2022-11-10T08:17:23;101736.13;;;9.77;100.00
22688;BME280;11511;51.514;7.080;2022-11-10T08:20:08;101739.47;;;9.85;100.00
22688;BME280;11511;51.514;7.080;2022-11-10T08:23:00;101750.69;;;9.98;100.00
22688;BME280;11511;51.514;7.080;2022-11-10T08:25:45;101753.22;;;10.04;100.00
22688;BME280;11511;51.514;7.080;2022-11-10T08:28:30;101752.16;;;10.14;100.00
22688;BME280;11511;51.514;7.080;2022-11-10T08:31:15;101759.13;;;10.18;100.00
22688;BME280;11511;51.514;7.080;2022-11-10T08:33:59;101756.38;;;10.28;100.00
22688;BME280;11511;51.514;7.080;2022-11-10T08:36:44;101750.25;;;10.27;100.00
22688;BME280;11511;51.514;7.080;2022-11-10T08:39:29;101760.50;;;10.42;100.00
22688;BME280;11511;51.514;7.080;2022-11-10T08:42:13;101762.06;;;10.54;100.00
22688;BME280;11511;51.514;7.080;2022-11-10T08:44:57;101780.38;;;10.62;100.00
22688;BME280;11511;51.514;7.080;2022-11-10T08:47:42;101774.78;;;10.78;100.00
22688;BME280;11511;51.514;7.080;2022-11-10T08:50:28;101765.88;;;10.84;100.00
22688;BME280;11511;51.514;7.080;2022-11-10T08:53:15;101773.47;;;11.01;100.00
22688;BME280;11511;51.514;7.080;2022-11-10T08:56:00;101770.47;;;11.19;100.00
22688;BME280;11511;51.514;7.080;2022-11-10T08:58:44;101777.59;;;11.14;100.00
22688;BME280;11511;51.514;7.080;2022-11-10T09:01:28;101785.25;;;11.26;100.00
22688;BME280;11511;51.514;7.080;2022-11-10T09:04:13;101795.41;;;11.46;100.00
22688;BME280;11511;51.514;7.080;2022-11-10T09:06:59;101791.69;;;11.53;100.00
22688;BME280;11511;51.514;7.080;2022-11-10T09:09:43;101779.34;;;11.55;100.00
22688;BME280;11511;51.514;7.080;2022-11-10T09:12:27;101776.53;;;11.63;100.00
22688;BME280;11511;51.514;7.080;2022-11-10T09:15:12;101779.00;;;11.72;100.00
22688;BME280;11511;51.514;7.080;2022-11-10T09:17:57;101787.84;;;11.69;100.00
22688;BME280;11511;51.514;7.080;2022-11-10T09:20:42;101778.94;;;11.75;100.00
22688;BME280;11511;51.514;7.080;2022-11-10T09:23:27;101772.56;;;11.83;100.00
22688;BME280;11511;51.514;7.080;2022-11-10T09:26:11;101776.00;;;12.24;100.00
22688;BME280;11511;51.514;7.080;2022-11-10T09:28:55;101770.25;;;12.42;100.00
22688;BME280;11511;51.514;7.080;2022-11-10T09:31:42;101788.09;;;12.67;100.00
22688;BME280;11511;51.514;7.080;2022-11-10T09:34:27;101804.44;;;12.48;100.00
22688;BME280;11511;51.514;7.080;2022-11-10T09:37:11;101804.25;;;12.88;100.00
22688;BME280;11511;51.514;7.080;2022-11-10T09:39:55;101803.50;;;12.85;100.00
22688;BME280;11511;51.514;7.080;2022-11-10T09:42:40;101802.41;;;12.92;100.00
22688;BME280;11511;51.514;7.080;2022-11-10T09:45:50;101814.53;;;13.63;100.00
22688;BME280;11511;51.514;7.080;2022-11-10T09:48:42;101812.63;;;13.06;100.00
22688;BME280;11511;51.514;7.080;2022-11-10T09:51:32;101816.13;;;14.50;100.00
22688;BME280;11511;51.514;7.080;2022-11-10T09:57:25;101820.88;;;20.11;87.90
22688;BME280;11511;51.514;7.080;2022-11-10T10:00:15;101841.69;;;19.42;89.57
22688;BME280;11511;51.514;7.080;2022-11-10T10:03:03;101835.06;;;20.89;82.89
22688;BME280;11511;51.514;7.080;2022-11-10T10:05:55;101839.03;;;20.52;82.75
22688;BME280;11511;51.514;7.080;2022-11-10T10:09:07;101850.16;;;19.00;85.58
22688;BME280;11511;51.514;7.080;2022-11-10T10:18:26;101852.00;;;19.32;83.04
22688;BME280;11511;51.514;7.080;2022-11-10T10:23:57;101852.09;;;22.70;69.90
22688;BME280;11511;51.514;7.080;2022-11-10T10:26:56;101867.69;;;21.25;72.97
22688;BME280;11511;51.514;7.080;2022-11-10T10:29:45;101857.44;;;23.09;67.81
22688;BME280;11511;51.514;7.080;2022-11-10T10:32:31;101861.56;;;21.66;69.82
22688;BME280;11511;51.514;7.080;2022-11-10T10:35:17;101867.38;;;22.15;70.48
22688;BME280;11511;51.514;7.080;2022-11-10T10:38:03;101865.09;;;19.54;77.37
22688;BME280;11511;51.514;7.080;2022-11-10T10:40:50;101852.03;;;20.12;78.16
22688;BME280;11511;51.514;7.080;2022-11-10T10:43:35;101852.19;;;19.78;80.23
22688;BME280;11511;51.514;7.080;2022-11-10T10:46:19;101843.16;;;21.74;72.52
22688;BME280;11511;51.514;7.080;2022-11-10T10:52:15;101860.16;;;19.95;74.88
22688;BME280;11511;51.514;7.080;2022-11-10T10:55:05;101857.16;;;21.37;74.65
22688;BME280;11511;51.514;7.080;2022-11-10T10:57:53;101859.94;;;20.91;73.48
22688;BME280;11511;51.514;7.080;2022-11-10T11:00:43;101870.63;;;21.35;72.16
22688;BME280;11511;51.514;7.080;2022-11-10T11:03:39;101872.41;;;22.20;70.38
22688;BME280;11511;51.514;7.080;2022-11-10T11:06:29;101874.19;;;21.21;73.77
22688;BME280;11511;51.514;7.080;2022-11-10T11:09:21;101872.63;;;23.61;64.15
22688;BME280;11511;51.514;7.080;2022-11-10T11:17:58;101887.06;;;20.85;74.49
22688;BME280;11511;51.514;7.080;2022-11-10T11:20:56;101891.47;;;22.83;67.55
22688;BME280;11511;51.514;7.080;2022-11-10T11:27:04;101900.78;;;20.65;73.15
22688;BME280;11511;51.514;7.080;2022-11-10T11:30:07;101902.44;;;21.11;71.62
22688;BME280;11511;51.514;7.080;2022-11-10T11:36:15;101893.47;;;20.82;75.81
22688;BME280;11511;51.514;7.080;2022-11-10T11:42:30;101909.50;;;19.39;79.27
22688;BME280;11511;51.514;7.080;2022-11-10T11:45:38;101905.38;;;18.82;82.38
22688;BME280;11511;51.514;7.080;2022-11-10T11:48:39;101917.75;;;20.49;77.47
22688;BME280;11511;51.514;7.080;2022-11-10T11:51:39;101904.75;;;21.03;74.31
22688;BME280;11511;51.514;7.080;2022-11-10T11:54:44;101907.34;;;20.75;74.03
22688;BME280;11511;51.514;7.080;2022-11-10T11:57:45;101934.94;;;19.97;74.76
22688;BME280;11511;51.514;7.080;2022-11-10T12:00:55;101925.94;;;19.98;77.69
22688;BME280;11511;51.514;7.080;2022-11-10T12:10:09;101920.59;;;19.82;75.95
22688;BME280;11511;51.514;7.080;2022-11-10T12:19:30;101931.72;;;18.33;81.43
22688;BME280;11511;51.514;7.080;2022-11-10T12:25:25;101931.38;;;19.13;79.65
22688;BME280;11511;51.514;7.080;2022-11-10T12:28:17;101931.97;;;19.01;81.00
22688;BME280;11511;51.514;7.080;2022-11-10T12:31:10;101923.59;;;18.36;80.64
22688;BME280;11511;51.514;7.080;2022-11-10T12:34:02;101934.66;;;18.29;83.26
22688;BME280;11511;51.514;7.080;2022-11-10T12:36:49;101937.94;;;18.15;82.72
22688;BME280;11511;51.514;7.080;2022-11-10T12:39:55;101944.03;;;17.59;83.58
22688;BME280;11511;51.514;7.080;2022-11-10T12:42:43;101949.91;;;18.44;83.04
22688;BME280;11511;51.514;7.080;2022-11-10T12:45:32;101946.97;;;19.20;79.60
22688;BME280;11511;51.514;7.080;2022-11-10T12:48:19;101940.81;;;18.67;79.69
22688;BME280;11511;51.514;7.080;2022-11-10T12:51:12;101932.09;;;17.88;82.50
22688;BME280;11511;51.514;7.080;2022-11-10T12:54:03;101942.34;;;18.16;82.92
22688;BME280;11511;51.514;7.080;2022-11-10T12:56:53;101948.63;;;17.96;83.20
22688;BME280;11511;51.514;7.080;2022-11-10T12:59:40;101945.41;;;17.69;83.79
22688;BME280;11511;51.514;7.080;2022-11-10T13:02:37;101946.91;;;17.54;85.38
22688;BME280;11511;51.514;7.080;2022-11-10T13:08:15;101942.41;;;18.33;82.05
22688;BME280;11511;51.514;7.080;2022-11-10T13:14:03;101941.94;;;17.47;85.87
22688;BME280;11511;51.514;7.080;2022-11-10T13:17:02;101945.47;;;16.63;89.83
22688;BME280;11511;51.514;7.080;2022-11-10T13:19:48;101945.63;;;17.83;86.16
22688;BME280;11511;51.514;7.080;2022-11-10T13:37:27;101967.47;;;17.73;83.76
22688;BME280;11511;51.514;7.080;2022-11-10T13:45:45;101961.97;;;17.35;86.01
22688;BME280;11511;51.514;7.080;2022-11-10T13:48:44;101955.25;;;16.84;87.56
22688;BME280;11511;51.514;7.080;2022-11-10T13:51:49;101949.19;;;17.43;86.45
22688;BME280;11511;51.514;7.080;2022-11-10T13:57:56;101955.41;;;15.66;92.85
22688;BME280;11511;51.514;7.080;2022-11-10T14:00:48;101953.97;;;15.57;94.76
22688;BME280;11511;51.514;7.080;2022-11-10T14:09:26;101953.81;;;15.36;96.21
22688;BME280;11511;51.514;7.080;2022-11-10T14:12:20;101947.56;;;15.12;97.77
22688;BME280;11511;51.514;7.080;2022-11-10T14:15:24;101948.81;;;15.02;98.77
22688;BME280;11511;51.514;7.080;2022-11-10T14:18:26;101953.66;;;14.89;100.00
22688;BME280;11511;51.514;7.080;2022-11-10T14:21:21;101940.63;;;15.08;100.00
22688;BME280;11511;51.514;7.080;2022-11-10T14:24:29;101941.38;;;15.11;100.00
22688;BME280;11511;51.514;7.080;2022-11-10T14:27:22;101938.16;;;15.03;100.00
22688;BME280;11511;51.514;7.080;2022-11-10T14:30:27;101946.16;;;15.02;100.00
22688;BME280;11511;51.514;7.080;2022-11-10T14:33:13;101956.44;;;14.84;100.00
22688;BME280;11511;51.514;7.080;2022-11-10T14:36:01;101964.94;;;14.40;100.00
22688;BME280;11511;51.514;7.080;2022-11-10T14:38:47;101964.34;;;14.30;100.00
22688;BME280;11511;51.514;7.080;2022-11-10T14:41:33;101961.50;;;14.07;100.00
22688;BME280;11511;51.514;7.080;2022-11-10T14:44:26;101961.41;;;14.10;100.00
22688;BME280;11511;51.514;7.080;2022-11-10T14:47:25;101963.00;;;13.86;100.00
22688;BME280;11511;51.514;7.080;2022-11-10T14:50:36;101953.50;;;13.79;100.00
22688;BME280;11511;51.514;7.080;2022-11-10T14:53:30;101964.78;;;13.54;100.00
22688;BME280;11511;51.514;7.080;2022-11-10T14:56:39;101966.66;;;13.49;100.00
22688;BME280;11511;51.514;7.080;2022-11-10T14:59:24;101972.31;;;13.37;100.00
22688;BME280;11511;51.514;7.080;2022-11-10T15:02:13;101973.47;;;13.26;100.00
22688;BME280;11511;51.514;7.080;2022-11-10T15:04:58;101974.31;;;13.28;100.00
22688;BME280;11511;51.514;7.080;2022-11-10T15:07:44;101975.03;;;12.99;100.00
22688;BME280;11511;51.514;7.080;2022-11-10T15:19:27;101979.03;;;13.13;100.00
22688;BME280;11511;51.514;7.080;2022-11-10T15:22:27;101979.47;;;12.97;100.00
22688;BME280;11511;51.514;7.080;2022-11-10T15:25:21;101986.03;;;12.82;100.00
22688;BME280;11511;51.514;7.080;2022-11-10T15:28:12;101981.63;;;12.81;100.00
22688;BME280;11511;51.514;7.080;2022-11-10T15:31:09;101994.25;;;12.68;100.00
22688;BME280;11511;51.514;7.080;2022-11-10T15:34:03;101997.06;;;12.61;100.00
22688;BME280;11511;51.514;7.080;2022-11-10T15:36:48;101999.50;;;12.31;100.00
22688;BME280;11511;51.514;7.080;2022-11-10T15:40:24;101996.56;;;12.45;100.00
22688;BME280;11511;51.514;7.080;2022-11-10T15:45:57;101980.63;;;12.48;100.00
22688;BME280;11511;51.514;7.080;2022-11-10T15:48:45;101978.34;;;12.31;100.00
22688;BME280;11511;51.514;7.080;2022-11-10T15:51:29;101980.22;;;12.28;100.00
22688;BME280;11511;51.514;7.080;2022-11-10T15:54:15;101987.25;;;12.29;100.00
22688;BME280;11511;51.514;7.080;2022-11-10T15:57:02;101982.84;;;12.29;100.00
22688;BME280;11511;51.514;7.080;2022-11-10T15:59:47;101997.53;;;12.01;100.00
22688;BME280;11511;51.514;7.080;2022-11-10T16:02:31;102007.22;;;12.00;100.00
22688;BME280;11511;51.514;7.080;2022-11-10T16:05:15;102010.69;;;12.02;100.00
22688;BME280;11511;51.514;7.080;2022-11-10T16:08:00;102015.34;;;11.90;100.00
22688;BME280;11511;51.514;7.080;2022-11-10T16:10:49;102018.25;;;11.74;100.00
22688;BME280;11511;51.514;7.080;2022-11-10T16:13:34;102024.56;;;11.66;100.00